createdAt,value
2023-05-18T00:01:23.865Z,2.90
2023-05-18T00:03:54.261Z,3.00
2023-05-18T00:06:22.573Z,2.80
2023-05-18T00:08:49.798Z,2.00
2023-05-18T00:11:17.592Z,2.20
2023-05-18T00:13:44.767Z,3.37
2023-05-18T00:16:16.037Z,1.60
2023-05-18T00:18:45.247Z,1.80
2023-05-18T00:21:13.282Z,1.87
2023-05-18T00:23:40.770Z,2.63
2023-05-18T00:26:07.804Z,2.77
2023-05-18T00:28:34.862Z,2.03
2023-05-18T00:31:02.027Z,2.60
2023-05-18T00:33:29.153Z,2.63
2023-05-18T00:35:57.548Z,2.10
2023-05-18T00:38:25.064Z,3.00
2023-05-18T00:40:52.194Z,2.10
2023-05-18T00:43:19.392Z,2.40
2023-05-18T00:45:46.657Z,2.33
2023-05-18T00:48:13.806Z,2.10
2023-05-18T00:50:41.353Z,2.20
2023-05-18T00:53:10.724Z,2.30
2023-05-18T00:55:38.144Z,1.53
2023-05-18T00:58:05.569Z,3.10
2023-05-18T01:00:33.909Z,2.03
2023-05-18T01:03:02.256Z,2.27
2023-05-18T01:05:29.883Z,1.87
2023-05-18T01:07:57.981Z,1.80
2023-05-18T01:10:25.380Z,2.33
2023-05-18T01:13:06.337Z,2.03
2023-05-18T01:15:37.650Z,1.90
2023-05-18T01:18:29.079Z,2.57
2023-05-18T01:21:43.013Z,2.10
2023-05-18T01:24:36.217Z,2.30
2023-05-18T01:27:08.255Z,2.60
2023-05-18T01:29:36.205Z,1.97
2023-05-18T01:32:08.052Z,2.80
2023-05-18T01:34:35.116Z,2.80
2023-05-18T01:37:02.254Z,2.20
2023-05-18T01:39:29.380Z,2.30
2023-05-18T01:42:03.827Z,2.00
2023-05-18T01:44:53.344Z,2.73
2023-05-18T01:47:20.597Z,1.97
2023-05-18T01:50:17.722Z,2.90
2023-05-18T01:53:14.836Z,2.37
2023-05-18T01:55:43.872Z,2.30
2023-05-18T01:58:13.545Z,2.20
2023-05-18T02:00:41.110Z,2.10
2023-05-18T02:03:08.458Z,2.20
2023-05-18T02:05:35.653Z,2.60
2023-05-18T02:08:04.091Z,2.80
2023-05-18T02:10:31.203Z,2.20
2023-05-18T02:12:59.255Z,2.60
2023-05-18T02:15:27.207Z,2.73
2023-05-18T02:17:58.297Z,3.87
2023-05-18T02:20:26.922Z,1.77
2023-05-18T02:22:55.031Z,2.40
2023-05-18T02:25:22.261Z,2.20
2023-05-18T02:27:49.344Z,1.63
2023-05-18T02:30:17.097Z,2.47
2023-05-18T02:32:47.190Z,2.07
2023-05-18T02:35:14.635Z,2.73
2023-05-18T02:37:44.190Z,2.03
2023-05-18T02:40:13.156Z,1.83
2023-05-18T02:42:41.179Z,3.07
2023-05-18T02:45:09.589Z,2.60
2023-05-18T02:47:37.089Z,2.40
2023-05-18T02:50:04.590Z,2.10
2023-05-18T02:52:34.162Z,2.30
2023-05-18T02:55:01.845Z,3.00
2023-05-18T02:57:47.230Z,3.20
2023-05-18T03:00:19.645Z,2.50
2023-05-18T03:02:48.650Z,2.33
2023-05-18T03:05:16.919Z,2.23
2023-05-18T03:07:50.741Z,2.07
2023-05-18T03:10:20.120Z,2.43
2023-05-18T03:12:48.664Z,2.50
2023-05-18T03:15:19.557Z,2.53
2023-05-18T03:17:46.908Z,2.00
2023-05-18T03:20:15.738Z,2.90
2023-05-18T03:22:43.302Z,2.50
2023-05-18T03:25:10.460Z,2.70
2023-05-18T03:27:39.009Z,4.00
2023-05-18T03:30:07.074Z,2.90
2023-05-18T03:32:34.379Z,3.50
2023-05-18T03:35:01.960Z,3.20
2023-05-18T03:37:30.128Z,4.20
2023-05-18T03:40:11.074Z,3.83
2023-05-18T03:42:41.214Z,4.27
2023-05-18T03:45:10.516Z,3.33
2023-05-18T03:47:39.236Z,4.00
2023-05-18T03:50:08.168Z,3.87
2023-05-18T03:52:37.089Z,4.00
2023-05-18T03:55:07.545Z,5.10
2023-05-18T03:57:34.741Z,3.97
2023-05-18T04:00:12.181Z,3.57
2023-05-18T04:02:45.108Z,3.80
2023-05-18T04:05:15.359Z,4.00
2023-05-18T04:07:46.776Z,4.83
2023-05-18T04:10:14.433Z,4.17
2023-05-18T04:12:43.142Z,4.73
2023-05-18T04:15:14.419Z,4.00
2023-05-18T04:17:46.053Z,3.20
2023-05-18T04:20:14.597Z,3.80
2023-05-18T04:22:46.718Z,3.00
2023-05-18T04:25:17.986Z,3.23
2023-05-18T04:27:45.701Z,3.53
2023-05-18T04:30:14.063Z,3.00
2023-05-18T04:32:43.493Z,3.43
2023-05-18T04:35:12.000Z,3.60
2023-05-18T04:37:41.070Z,3.10
2023-05-18T04:40:17.268Z,4.47
2023-05-18T04:42:47.699Z,3.37
2023-05-18T04:45:19.609Z,2.50
2023-05-18T04:47:54.098Z,3.40
2023-05-18T04:50:26.412Z,3.57
2023-05-18T04:52:53.975Z,2.27
2023-05-18T04:55:27.415Z,3.10
2023-05-18T04:58:03.468Z,2.80
2023-05-18T05:00:31.908Z,2.67
2023-05-18T05:02:59.702Z,2.73
2023-05-18T05:05:27.658Z,2.90
2023-05-18T05:07:56.061Z,3.10
2023-05-18T05:10:23.651Z,2.83
2023-05-18T05:12:51.546Z,3.30
2023-05-18T05:15:20.066Z,3.07
2023-05-18T05:17:49.487Z,2.70
2023-05-18T05:20:17.471Z,2.73
2023-05-18T05:22:44.936Z,3.13
2023-05-18T05:25:14.884Z,2.20
2023-05-18T05:27:42.233Z,2.83
2023-05-18T05:30:10.250Z,2.70
2023-05-18T05:32:38.440Z,2.10
2023-05-18T05:35:10.688Z,3.90
2023-05-18T05:37:41.934Z,3.10
2023-05-18T05:40:10.530Z,3.07
2023-05-18T05:42:42.551Z,3.50
2023-05-18T05:45:10.231Z,3.03
2023-05-18T05:47:49.629Z,5.90
2023-05-18T05:50:19.684Z,5.10
2023-05-18T05:52:48.806Z,3.50
2023-05-18T05:55:17.058Z,5.60
2023-05-18T05:57:44.787Z,2.37
2023-05-18T06:00:15.364Z,3.20
2023-05-18T06:02:48.906Z,3.70
2023-05-18T06:05:21.112Z,5.00
2023-05-18T06:07:48.736Z,4.97
2023-05-18T06:10:16.058Z,3.10
2023-05-18T06:12:43.346Z,5.00
2023-05-18T06:15:11.510Z,2.10
2023-05-18T06:17:41.049Z,2.77
2023-05-18T06:20:09.074Z,2.90
2023-05-18T06:22:36.668Z,2.70
2023-05-18T06:25:30.150Z,3.13
2023-05-18T06:28:08.926Z,1.60
2023-05-18T06:30:48.491Z,3.23
2023-05-18T06:33:42.057Z,2.47
2023-05-18T06:36:09.515Z,2.67
2023-05-18T06:38:36.640Z,1.90
2023-05-18T06:41:03.851Z,2.80
2023-05-18T06:43:31.374Z,2.07
2023-05-18T06:46:24.314Z,2.43
2023-05-18T06:49:01.349Z,1.77
2023-05-18T06:51:28.839Z,2.30
2023-05-18T06:53:57.677Z,2.70
2023-05-18T06:56:26.695Z,1.87
2023-05-18T06:58:55.337Z,2.10
2023-05-18T07:01:22.870Z,2.17
2023-05-18T07:03:50.377Z,2.00
2023-05-18T07:06:18.056Z,2.57
2023-05-18T07:08:47.328Z,1.70
2023-05-18T07:11:15.040Z,2.93
2023-05-18T07:13:42.841Z,3.47
2023-05-18T07:16:10.047Z,1.70
2023-05-18T07:18:38.622Z,2.10
2023-05-18T07:21:06.598Z,1.77
2023-05-18T07:23:33.807Z,1.50
2023-05-18T07:26:01.392Z,1.60
2023-05-18T07:28:28.688Z,2.63
2023-05-18T07:30:55.970Z,2.27
2023-05-18T07:33:23.333Z,2.70
2023-05-18T07:35:50.528Z,1.57
2023-05-18T07:38:17.639Z,1.80
2023-05-18T07:40:44.876Z,2.00
2023-05-18T07:43:12.321Z,1.90
2023-05-18T07:45:39.612Z,2.10
2023-05-18T07:48:07.990Z,1.70
2023-05-18T07:50:35.888Z,1.97
2023-05-18T07:53:06.120Z,1.80
2023-05-18T07:55:33.707Z,2.80
2023-05-18T07:58:01.240Z,1.60
2023-05-18T08:00:31.291Z,2.20
2023-05-18T08:02:59.033Z,2.57
2023-05-18T08:05:26.679Z,2.10
2023-05-18T08:07:53.910Z,1.90
2023-05-18T08:10:21.130Z,2.20
2023-05-18T08:12:48.245Z,2.00
2023-05-18T08:15:15.440Z,2.20
2023-05-18T08:17:42.780Z,1.57
2023-05-18T08:20:10.865Z,2.80
2023-05-18T08:22:38.090Z,1.73
2023-05-18T08:25:05.718Z,1.87
2023-05-18T08:27:32.786Z,1.47
2023-05-18T08:29:59.901Z,2.10
2023-05-18T08:32:27.881Z,1.60
2023-05-18T08:34:55.063Z,2.00
2023-05-18T08:37:22.268Z,1.90
2023-05-18T08:39:49.368Z,1.50
2023-05-18T08:42:50.095Z,1.67
2023-05-18T08:45:47.257Z,1.53
2023-05-18T08:48:16.765Z,2.10
2023-05-18T08:50:45.889Z,2.67
2023-05-18T08:53:13.455Z,2.00
2023-05-18T08:55:42.407Z,2.00
2023-05-18T08:58:12.672Z,1.60
2023-05-18T09:00:39.910Z,1.60
2023-05-18T09:03:07.032Z,1.50
2023-05-18T09:05:34.662Z,2.20
2023-05-18T09:08:03.689Z,1.93
2023-05-18T09:10:34.023Z,2.00
2023-05-18T09:13:02.770Z,2.20
2023-05-18T09:15:30.075Z,1.90
2023-05-18T09:17:57.509Z,1.50
2023-05-18T09:20:28.071Z,2.13
2023-05-18T09:22:55.487Z,1.60
2023-05-18T09:25:25.338Z,2.57
2023-05-18T09:27:53.306Z,1.80
2023-05-18T09:30:20.488Z,1.80
2023-05-18T09:32:48.205Z,1.93
2023-05-18T09:35:16.080Z,1.63
2023-05-18T09:37:44.087Z,2.33
2023-05-18T09:40:11.827Z,1.90
2023-05-18T09:42:43.820Z,2.00
2023-05-18T09:45:23.826Z,1.47
2023-05-18T09:47:51.679Z,1.60
2023-05-18T09:50:26.548Z,2.00
2023-05-18T09:52:53.812Z,1.37
2023-05-18T09:55:21.214Z,2.00
2023-05-18T09:57:50.569Z,1.83
2023-05-18T10:00:21.689Z,1.50
2023-05-18T10:02:52.629Z,2.40
2023-05-18T10:05:33.172Z,2.40
2023-05-18T10:08:02.073Z,1.70
2023-05-18T10:10:29.778Z,2.33
2023-05-18T10:12:58.566Z,2.37
2023-05-18T10:15:26.343Z,1.50
2023-05-18T10:17:57.333Z,1.80
2023-05-18T10:20:26.978Z,1.57
2023-05-18T10:22:56.494Z,2.33
2023-05-18T10:25:26.963Z,2.00
2023-05-18T10:28:01.327Z,2.20
2023-05-18T10:30:28.749Z,1.40
2023-05-18T10:32:58.353Z,1.80
2023-05-18T10:35:28.377Z,1.23
2023-05-18T10:37:57.798Z,1.40
2023-05-18T10:40:27.970Z,1.30
2023-05-18T10:42:58.798Z,1.73
2023-05-18T10:45:27.867Z,1.60
2023-05-18T10:47:57.511Z,2.10
2023-05-18T10:50:26.436Z,1.57
2023-05-18T10:52:54.712Z,1.83
2023-05-18T10:55:22.312Z,1.70
2023-05-18T10:58:07.783Z,2.00
2023-05-18T11:00:37.017Z,1.60
2023-05-18T11:03:08.767Z,1.90
2023-05-18T11:05:39.858Z,1.57
2023-05-18T11:08:07.421Z,1.83
2023-05-18T11:10:42.518Z,1.47
2023-05-18T11:13:13.946Z,1.87
2023-05-18T11:15:53.507Z,1.80
2023-05-18T11:18:21.825Z,2.10
2023-05-18T11:20:49.441Z,1.83
2023-05-18T11:23:18.761Z,2.10
2023-05-18T11:25:48.483Z,1.97
2023-05-18T11:28:15.788Z,2.17
2023-05-18T11:30:44.381Z,1.80
2023-05-18T11:33:12.228Z,1.27
2023-05-18T11:36:23.496Z,1.80
2023-05-18T11:39:04.106Z,1.93
2023-05-18T11:41:44.359Z,2.00
2023-05-18T11:44:25.122Z,1.63
2023-05-18T11:46:53.512Z,1.77
2023-05-18T11:49:25.150Z,1.90
2023-05-18T11:52:02.117Z,1.53
2023-05-18T11:54:36.419Z,1.77
2023-05-18T11:57:03.883Z,2.30
2023-05-18T11:59:41.203Z,1.87
2023-05-18T12:02:13.282Z,2.40
2023-05-18T12:04:48.050Z,1.57
2023-05-18T12:07:15.804Z,1.77
2023-05-18T12:09:44.299Z,1.53
2023-05-18T12:12:13.266Z,2.30
2023-05-18T12:14:42.970Z,1.40
2023-05-18T12:17:11.025Z,1.23
2023-05-18T12:19:45.353Z,1.73
2023-05-18T12:22:12.986Z,1.47
2023-05-18T12:24:41.632Z,1.37
2023-05-18T12:27:11.664Z,1.40
2023-05-18T12:29:41.174Z,1.70
2023-05-18T12:32:13.307Z,1.70
2023-05-18T12:34:40.800Z,1.33
2023-05-18T12:37:08.081Z,1.70
2023-05-18T12:39:37.259Z,1.47
2023-05-18T12:42:15.420Z,1.30
2023-05-18T12:44:44.957Z,1.77
2023-05-18T12:47:13.448Z,1.30
2023-05-18T12:49:43.516Z,2.00
2023-05-18T12:52:13.530Z,4.80
2023-05-18T12:55:01.109Z,2.10
2023-05-18T12:57:31.082Z,2.03
2023-05-18T12:59:58.756Z,1.90
2023-05-18T13:02:39.000Z,1.83
2023-05-18T13:05:11.878Z,1.20
2023-05-18T13:07:45.108Z,1.23
2023-05-18T13:10:16.751Z,1.60
2023-05-18T13:12:49.794Z,0.97
2023-05-18T13:15:22.692Z,1.30
2023-05-18T13:17:59.487Z,1.70
2023-05-18T13:20:53.739Z,1.40
2023-05-18T13:23:29.776Z,8.00
2023-05-18T13:25:58.761Z,5.00
2023-05-18T13:28:27.523Z,4.20
2023-05-18T13:30:54.809Z,6.50
2023-05-18T13:33:22.032Z,9.67
2023-05-18T13:35:50.032Z,8.10
2023-05-18T13:38:17.377Z,10.87
2023-05-18T13:40:46.510Z,5.77
2023-05-18T13:43:14.098Z,3.13
2023-05-18T13:45:42.137Z,2.47
2023-05-18T13:48:10.793Z,2.43
2023-05-18T13:50:39.314Z,2.23
2023-05-18T13:53:06.914Z,2.33
2023-05-18T13:55:35.174Z,4.17
2023-05-18T13:58:02.712Z,2.23
2023-05-18T14:00:33.066Z,1.60
2023-05-18T14:03:01.008Z,4.33
2023-05-18T14:05:28.375Z,6.43
2023-05-18T14:07:56.764Z,3.40
2023-05-18T14:10:24.136Z,2.03
2023-05-18T14:12:51.264Z,5.33
2023-05-18T14:15:18.473Z,2.37
2023-05-18T14:17:45.760Z,3.13
2023-05-18T14:20:13.573Z,2.43
2023-05-18T14:22:41.161Z,3.53
2023-05-18T14:25:08.866Z,3.20
2023-05-18T14:27:36.038Z,3.70
2023-05-18T14:30:03.520Z,3.20
2023-05-18T14:32:30.711Z,3.30
2023-05-18T14:34:58.601Z,2.47
2023-05-18T14:37:26.202Z,1.73
2023-05-18T14:39:53.471Z,1.87
2023-05-18T14:42:21.090Z,1.07
2023-05-18T14:44:48.188Z,1.50
2023-05-18T14:47:15.367Z,3.37
2023-05-18T14:49:42.508Z,2.77
2023-05-18T14:52:09.674Z,3.90
2023-05-18T14:54:36.846Z,6.60
2023-05-18T14:57:04.649Z,5.30
2023-05-18T14:59:31.721Z,3.90
2023-05-18T15:01:58.897Z,2.90
2023-05-18T15:04:26.106Z,1.53
2023-05-18T15:06:53.429Z,4.33
2023-05-18T15:09:20.495Z,2.73
2023-05-18T15:11:47.613Z,2.70
2023-05-18T15:14:14.733Z,3.77
2023-05-18T15:16:42.631Z,3.90
2023-05-18T15:19:10.099Z,3.23
2023-05-18T15:21:37.312Z,3.80
2023-05-18T15:24:04.673Z,5.20
2023-05-18T15:26:32.104Z,6.03
2023-05-18T15:28:59.214Z,4.90
2023-05-18T15:31:26.338Z,3.00
2023-05-18T15:33:53.481Z,6.23
2023-05-18T15:36:21.724Z,7.13
2023-05-18T15:38:48.857Z,3.47
2023-05-18T15:41:16.006Z,7.87
2023-05-18T15:43:43.569Z,4.37
2023-05-18T15:46:10.779Z,3.40
2023-05-18T15:48:37.957Z,4.50
2023-05-18T15:51:05.077Z,2.63
2023-05-18T15:53:32.143Z,1.60
2023-05-18T15:55:59.706Z,1.53
2023-05-18T15:58:27.072Z,1.60
2023-05-18T16:00:54.327Z,2.47
2023-05-18T16:03:21.668Z,1.57
2023-05-18T16:05:48.945Z,1.47
2023-05-18T16:08:16.062Z,1.60
2023-05-18T16:10:43.189Z,1.33
2023-05-18T16:13:10.278Z,1.90
2023-05-18T16:15:37.470Z,1.53
2023-05-18T16:18:05.199Z,1.60
2023-05-18T16:20:32.572Z,1.30
2023-05-18T16:23:00.064Z,2.33
2023-05-18T16:25:28.787Z,1.50
2023-05-18T16:27:55.996Z,2.07
2023-05-18T16:30:23.250Z,1.40
2023-05-18T16:32:50.502Z,1.83
2023-05-18T16:35:17.709Z,2.17
2023-05-18T16:37:44.816Z,2.40
2023-05-18T16:40:12.224Z,2.20
2023-05-18T16:42:39.424Z,1.80
2023-05-18T16:45:06.944Z,1.53
2023-05-18T16:47:34.095Z,1.40
2023-05-18T16:50:01.432Z,1.90
2023-05-18T16:52:28.762Z,1.80
2023-05-18T16:54:55.900Z,1.70
2023-05-18T16:57:25.379Z,1.90
2023-05-18T16:59:54.412Z,1.73
2023-05-18T17:02:21.769Z,1.60
2023-05-18T17:04:49.858Z,2.10
2023-05-18T17:07:17.442Z,1.30
2023-05-18T17:09:44.934Z,2.03
2023-05-18T17:12:12.728Z,1.80
2023-05-18T17:14:39.977Z,1.90
2023-05-18T17:17:07.873Z,2.37
2023-05-18T17:19:35.594Z,1.40
2023-05-18T17:22:04.664Z,1.50
2023-05-18T17:24:32.209Z,0.90
2023-05-18T17:26:59.383Z,1.40
2023-05-18T17:29:27.200Z,1.10
2023-05-18T17:31:54.665Z,1.63
2023-05-18T17:34:22.758Z,1.67
2023-05-18T17:36:50.340Z,2.03
2023-05-18T17:39:17.427Z,1.73
2023-05-18T17:41:44.684Z,2.37
2023-05-18T17:44:16.541Z,3.33
2023-05-18T17:46:45.833Z,1.60
2023-05-18T17:49:14.283Z,4.13
2023-05-18T17:51:41.833Z,2.10
2023-05-18T17:54:09.176Z,1.20
2023-05-18T17:56:37.080Z,1.70
2023-05-18T17:59:05.909Z,1.90
2023-05-18T18:01:34.117Z,1.77
2023-05-18T18:04:02.111Z,1.47
2023-05-18T18:06:29.287Z,2.03
2023-05-18T18:08:58.446Z,1.67
2023-05-18T18:11:26.533Z,1.40
2023-05-18T18:13:54.620Z,3.33
2023-05-18T18:16:22.477Z,2.30
2023-05-18T18:18:50.584Z,2.57
2023-05-18T18:21:17.880Z,4.50
2023-05-18T18:23:45.160Z,2.33
2023-05-18T18:26:12.568Z,1.87
2023-05-18T18:28:39.741Z,1.80
2023-05-18T18:31:06.938Z,1.37
2023-05-18T18:33:34.153Z,3.63
2023-05-18T18:36:02.316Z,1.50
2023-05-18T18:38:29.434Z,1.97
2023-05-18T18:41:01.614Z,1.70
2023-05-18T18:43:29.301Z,2.30
2023-05-18T18:45:57.449Z,2.40
2023-05-18T18:48:25.616Z,2.63
2023-05-18T18:50:53.545Z,1.77
2023-05-18T18:53:20.929Z,2.80
2023-05-18T18:55:48.603Z,1.73
2023-05-18T18:58:15.992Z,1.80
2023-05-18T19:00:43.941Z,2.40
2023-05-18T19:03:11.258Z,1.70
2023-05-18T19:05:39.395Z,1.70
2023-05-18T19:08:06.688Z,2.20
2023-05-18T19:10:34.440Z,1.77
2023-05-18T19:13:05.669Z,1.70
2023-05-18T19:15:35.187Z,1.87
2023-05-18T19:18:03.235Z,2.43
2023-05-18T19:20:30.447Z,2.30
2023-05-18T19:22:57.671Z,1.63
2023-05-18T19:25:26.367Z,3.10
2023-05-18T19:27:53.998Z,2.70
2023-05-18T19:30:22.390Z,2.20
2023-05-18T19:32:53.929Z,3.30
2023-05-18T19:35:23.759Z,3.00
2023-05-18T19:37:51.906Z,2.10
2023-05-18T19:40:19.254Z,2.47
2023-05-18T19:42:49.277Z,2.83
2023-05-18T19:45:16.471Z,1.80
2023-05-18T19:47:43.613Z,2.70
2023-05-18T19:50:12.380Z,2.10
2023-05-18T19:52:39.509Z,1.87
2023-05-18T19:55:07.291Z,2.43
2023-05-18T19:57:34.517Z,2.30
2023-05-18T20:00:02.405Z,2.77
2023-05-18T20:02:39.513Z,3.10
2023-05-18T20:05:07.830Z,1.83
2023-05-18T20:07:34.962Z,2.80
2023-05-18T20:10:02.099Z,1.87
2023-05-18T20:12:29.215Z,2.00
2023-05-18T20:14:56.299Z,3.13
2023-05-18T20:17:23.673Z,2.97
2023-05-18T20:19:50.936Z,3.20
2023-05-18T20:22:18.514Z,3.20
2023-05-18T20:24:46.330Z,2.43
2023-05-18T20:27:15.037Z,2.60
2023-05-18T20:29:42.616Z,2.80
2023-05-18T20:32:09.688Z,2.80
2023-05-18T20:34:36.874Z,3.23
2023-05-18T20:37:04.818Z,2.90
2023-05-18T20:39:32.903Z,2.80
2023-05-18T20:42:00.064Z,3.17
2023-05-18T20:44:28.742Z,2.53
2023-05-18T20:46:55.931Z,2.63
2023-05-18T20:49:24.963Z,2.57
2023-05-18T20:51:52.346Z,3.30
2023-05-18T20:54:21.231Z,3.23
2023-05-18T20:56:48.590Z,3.70
2023-05-18T20:59:16.388Z,3.83
2023-05-18T21:01:43.598Z,2.90
2023-05-18T21:04:12.895Z,3.90
2023-05-18T21:06:41.106Z,2.73
2023-05-18T21:09:08.510Z,3.50
2023-05-18T21:11:36.044Z,3.27
2023-05-18T21:14:03.523Z,3.40
2023-05-18T21:16:30.798Z,3.87
2023-05-18T21:18:58.039Z,3.00
2023-05-18T21:21:25.226Z,3.37
2023-05-18T21:23:52.359Z,3.17
2023-05-18T21:26:19.485Z,3.40
2023-05-18T21:28:46.659Z,3.57
2023-05-18T21:31:13.970Z,2.80
2023-05-18T21:33:42.086Z,3.60
2023-05-18T21:36:09.950Z,3.73
2023-05-18T21:38:37.205Z,3.83
2023-05-18T21:41:04.313Z,4.80
2023-05-18T21:43:31.444Z,3.60
2023-05-18T21:45:58.715Z,4.63
2023-05-18T21:48:25.864Z,3.90
2023-05-18T21:50:52.958Z,3.90
2023-05-18T21:53:20.172Z,4.30
2023-05-18T21:55:47.326Z,4.00
2023-05-18T21:58:14.441Z,5.40
2023-05-18T22:00:41.911Z,4.30
2023-05-18T22:03:09.064Z,4.07
2023-05-18T22:05:36.348Z,4.70
2023-05-18T22:08:03.574Z,4.20
2023-05-18T22:10:32.445Z,4.37
2023-05-18T22:13:00.770Z,3.50
2023-05-18T22:15:28.012Z,6.17
2023-05-18T22:17:55.766Z,4.87
2023-05-18T22:20:24.032Z,4.23
2023-05-18T22:22:51.184Z,5.40
2023-05-18T22:25:18.523Z,4.87
2023-05-18T22:27:46.573Z,4.13
2023-05-18T22:30:14.273Z,5.40
2023-05-18T22:32:41.506Z,5.00
2023-05-18T22:35:09.722Z,4.97
2023-05-18T22:37:36.957Z,5.17
2023-05-18T22:40:06.512Z,5.00
2023-05-18T22:42:34.060Z,5.23
2023-05-18T22:45:02.295Z,5.30
2023-05-18T22:47:30.209Z,4.50
2023-05-18T22:49:57.336Z,4.90
2023-05-18T22:52:24.472Z,3.60
2023-05-18T22:54:51.567Z,4.50
2023-05-18T22:57:18.720Z,4.70
2023-05-18T22:59:45.868Z,4.50
2023-05-18T23:02:13.099Z,5.03
2023-05-18T23:04:40.322Z,4.27
2023-05-18T23:07:07.873Z,4.60
2023-05-18T23:09:37.151Z,3.60
2023-05-18T23:12:05.046Z,4.00
2023-05-18T23:14:33.873Z,3.40
2023-05-18T23:17:01.087Z,4.00
2023-05-18T23:19:28.514Z,3.93
2023-05-18T23:21:56.630Z,4.40
2023-05-18T23:24:23.854Z,5.13
2023-05-18T23:26:51.074Z,3.97
2023-05-18T23:29:18.218Z,3.50
2023-05-18T23:31:45.455Z,3.00
2023-05-18T23:34:12.991Z,3.20
2023-05-18T23:36:42.873Z,5.20
2023-05-18T23:39:10.924Z,3.80
2023-05-18T23:41:39.130Z,3.43
2023-05-18T23:44:07.294Z,3.77
2023-05-18T23:46:35.504Z,3.37
2023-05-18T23:49:03.664Z,2.93
2023-05-18T23:51:35.846Z,3.20
2023-05-18T23:54:08.089Z,3.90
2023-05-18T23:56:35.981Z,3.80
2023-05-18T23:59:03.874Z,3.10
